sensor_id;sensor_type;location;lat;lon;timestamp;pressure;altitude;pressure_sealevel;temperature;humidity
69245;BME280;56357;52.304;4.870;2023-05-19T00:01:57;103045.84;;;18.72;46.98
69245;BME280;56357;52.304;4.870;2023-05-19T00:04:25;103040.25;;;18.72;47.30
69245;BME280;56357;52.304;4.870;2023-05-19T00:06:53;103037.91;;;18.69;47.42
69245;BME280;56357;52.304;4.870;2023-05-19T00:09:19;103035.31;;;18.67;47.45
69245;BME280;56357;52.304;4.870;2023-05-19T00:11:46;103033.06;;;18.76;47.16
69245;BME280;56357;52.304;4.870;2023-05-19T00:14:13;103038.31;;;18.72;47.18
69245;BME280;56357;52.304;4.870;2023-05-19T00:16:40;103035.25;;;18.74;47.01
69245;BME280;56357;52.304;4.870;2023-05-19T00:19:07;103034.97;;;18.82;46.94
69245;BME280;56357;52.304;4.870;2023-05-19T00:21:34;103035.75;;;18.71;47.38
69245;BME280;56357;52.304;4.870;2023-05-19T00:24:01;103033.72;;;18.78;47.01
69245;BME280;56357;52.304;4.870;2023-05-19T00:26:28;103030.56;;;18.68;47.37
69245;BME280;56357;52.304;4.870;2023-05-19T00:28:54;103022.88;;;18.63;47.64
69245;BME280;56357;52.304;4.870;2023-05-19T00:31:21;103021.53;;;18.66;47.09
69245;BME280;56357;52.304;4.870;2023-05-19T00:33:48;103025.50;;;18.58;47.58
69245;BME280;56357;52.304;4.870;2023-05-19T00:36:14;103027.84;;;18.61;47.64
69245;BME280;56357;52.304;4.870;2023-05-19T00:38:41;103031.50;;;18.62;47.35
69245;BME280;56357;52.304;4.870;2023-05-19T00:41:07;103030.75;;;18.48;47.77
69245;BME280;56357;52.304;4.870;2023-05-19T00:43:34;103031.25;;;18.45;47.89
69245;BME280;56357;52.304;4.870;2023-05-19T00:46:00;103033.56;;;18.48;47.76
69245;BME280;56357;52.304;4.870;2023-05-19T00:48:27;103030.19;;;18.40;48.04
69245;BME280;56357;52.304;4.870;2023-05-19T00:50:55;103029.09;;;18.41;47.84
69245;BME280;56357;52.304;4.870;2023-05-19T00:53:26;103024.19;;;18.36;48.09
69245;BME280;56357;52.304;4.870;2023-05-19T00:55:53;103022.84;;;18.39;48.01
69245;BME280;56357;52.304;4.870;2023-05-19T00:58:19;103020.66;;;18.41;47.95
69245;BME280;56357;52.304;4.870;2023-05-19T01:00:48;103021.13;;;18.38;48.39
69245;BME280;56357;52.304;4.870;2023-05-19T01:03:15;103021.97;;;18.45;47.95
69245;BME280;56357;52.304;4.870;2023-05-19T01:05:44;103018.97;;;18.40;48.03
69245;BME280;56357;52.304;4.870;2023-05-19T01:08:11;103023.31;;;18.36;48.04
69245;BME280;56357;52.304;4.870;2023-05-19T01:10:38;103022.09;;;18.25;48.57
69245;BME280;56357;52.304;4.870;2023-05-19T01:13:05;103011.06;;;18.30;48.17
69245;BME280;56357;52.304;4.870;2023-05-19T01:15:38;103021.00;;;18.33;48.23
69245;BME280;56357;52.304;4.870;2023-05-19T01:18:11;103014.63;;;18.19;48.54
69245;BME280;56357;52.304;4.870;2023-05-19T01:20:50;103021.78;;;18.15;48.78
69245;BME280;56357;52.304;4.870;2023-05-19T01:23:48;103021.72;;;18.21;48.54
69245;BME280;56357;52.304;4.870;2023-05-19T01:26:33;103016.72;;;18.23;48.41
69245;BME280;56357;52.304;4.870;2023-05-19T01:31:49;103007.81;;;18.08;48.66
69245;BME280;56357;52.304;4.870;2023-05-19T01:34:16;102993.34;;;18.11;48.68
69245;BME280;56357;52.304;4.870;2023-05-19T01:36:45;102999.16;;;18.10;48.60
69245;BME280;56357;52.304;4.870;2023-05-19T01:39:14;102992.25;;;18.12;48.61
69245;BME280;56357;52.304;4.870;2023-05-19T01:41:42;102989.72;;;18.04;48.65
69245;BME280;56357;52.304;4.870;2023-05-19T01:44:11;102998.09;;;18.11;48.45
69245;BME280;56357;52.304;4.870;2023-05-19T01:46:37;102992.72;;;18.09;48.76
69245;BME280;56357;52.304;4.870;2023-05-19T01:49:05;103000.69;;;18.06;48.65
69245;BME280;56357;52.304;4.870;2023-05-19T01:51:31;102991.91;;;18.02;48.87
69245;BME280;56357;52.304;4.870;2023-05-19T01:53:58;102988.69;;;17.99;48.85
69245;BME280;56357;52.304;4.870;2023-05-19T01:56:36;102994.53;;;17.97;48.98
69245;BME280;56357;52.304;4.870;2023-05-19T01:59:27;103003.81;;;17.98;48.79
69245;BME280;56357;52.304;4.870;2023-05-19T02:02:00;102996.47;;;17.97;48.64
69245;BME280;56357;52.304;4.870;2023-05-19T02:04:42;102994.31;;;17.99;48.88
69245;BME280;56357;52.304;4.870;2023-05-19T02:07:19;102993.63;;;18.03;48.71
69245;BME280;56357;52.304;4.870;2023-05-19T02:10:03;102988.06;;;17.97;48.88
69245;BME280;56357;52.304;4.870;2023-05-19T02:12:39;102984.63;;;17.95;48.91
69245;BME280;56357;52.304;4.870;2023-05-19T02:15:24;102990.63;;;17.98;48.83
69245;BME280;56357;52.304;4.870;2023-05-19T02:17:52;102985.50;;;17.95;48.83
69245;BME280;56357;52.304;4.870;2023-05-19T02:20:20;102980.97;;;17.94;49.17
69245;BME280;56357;52.304;4.870;2023-05-19T02:22:47;102972.56;;;17.94;48.54
69245;BME280;56357;52.304;4.870;2023-05-19T02:25:13;102977.84;;;17.84;49.35
69245;BME280;56357;52.304;4.870;2023-05-19T02:27:40;102977.84;;;17.84;49.24
69245;BME280;56357;52.304;4.870;2023-05-19T02:30:08;102982.97;;;17.87;49.03
69245;BME280;56357;52.304;4.870;2023-05-19T02:32:34;102980.41;;;17.86;49.04
69245;BME280;56357;52.304;4.870;2023-05-19T02:35:01;102977.84;;;17.84;49.46
69245;BME280;56357;52.304;4.870;2023-05-19T02:37:28;102984.06;;;17.86;49.34
69245;BME280;56357;52.304;4.870;2023-05-19T02:39:55;102978.22;;;17.88;49.24
69245;BME280;56357;52.304;4.870;2023-05-19T02:42:21;102968.31;;;17.85;49.37
69245;BME280;56357;52.304;4.870;2023-05-19T02:44:48;102971.31;;;17.90;49.18
69245;BME280;56357;52.304;4.870;2023-05-19T02:47:14;102969.06;;;17.99;49.19
69245;BME280;56357;52.304;4.870;2023-05-19T02:49:41;102973.50;;;17.88;49.31
69245;BME280;56357;52.304;4.870;2023-05-19T02:52:08;102969.34;;;17.91;49.17
69245;BME280;56357;52.304;4.870;2023-05-19T02:54:36;102973.69;;;17.87;49.42
69245;BME280;56357;52.304;4.870;2023-05-19T02:57:02;102965.25;;;17.93;49.73
69245;BME280;56357;52.304;4.870;2023-05-19T02:59:29;102979.78;;;17.84;49.61
69245;BME280;56357;52.304;4.870;2023-05-19T03:02:00;102966.16;;;17.87;49.65
69245;BME280;56357;52.304;4.870;2023-05-19T03:04:27;102967.88;;;17.88;49.26
69245;BME280;56357;52.304;4.870;2023-05-19T03:06:54;102968.19;;;17.98;49.40
69245;BME280;56357;52.304;4.870;2023-05-19T03:09:21;102963.06;;;17.95;49.34
69245;BME280;56357;52.304;4.870;2023-05-19T03:11:47;102956.84;;;17.93;49.58
69245;BME280;56357;52.304;4.870;2023-05-19T03:14:14;102956.59;;;17.95;49.29
69245;BME280;56357;52.304;4.870;2023-05-19T03:16:42;102961.00;;;17.84;49.44
69245;BME280;56357;52.304;4.870;2023-05-19T03:19:09;102951.06;;;17.88;49.75
69245;BME280;56357;52.304;4.870;2023-05-19T03:21:35;102959.16;;;17.96;49.48
69245;BME280;56357;52.304;4.870;2023-05-19T03:24:02;102954.03;;;17.93;49.39
69245;BME280;56357;52.304;4.870;2023-05-19T03:26:28;102950.19;;;17.88;49.42
69245;BME280;56357;52.304;4.870;2023-05-19T03:28:55;102954.91;;;17.94;49.70
69245;BME280;56357;52.304;4.870;2023-05-19T03:31:21;102964.44;;;17.86;49.91
69245;BME280;56357;52.304;4.870;2023-05-19T03:33:48;102954.94;;;17.87;49.79
69245;BME280;56357;52.304;4.870;2023-05-19T03:36:14;102954.50;;;17.90;49.62
69245;BME280;56357;52.304;4.870;2023-05-19T03:38:41;102949.56;;;17.86;49.92
69245;BME280;56357;52.304;4.870;2023-05-19T03:41:08;102942.94;;;17.80;49.97
69245;BME280;56357;52.304;4.870;2023-05-19T03:43:34;102937.56;;;17.79;50.15
69245;BME280;56357;52.304;4.870;2023-05-19T03:46:00;102942.03;;;17.86;49.85
69245;BME280;56357;52.304;4.870;2023-05-19T03:48:27;102938.59;;;17.84;49.92
69245;BME280;56357;52.304;4.870;2023-05-19T03:50:53;102936.06;;;17.76;50.00
69245;BME280;56357;52.304;4.870;2023-05-19T03:53:20;102940.13;;;17.80;50.18
69245;BME280;56357;52.304;4.870;2023-05-19T03:55:46;102936.94;;;17.77;50.11
69245;BME280;56357;52.304;4.870;2023-05-19T03:58:14;102942.94;;;17.80;50.31
69245;BME280;56357;52.304;4.870;2023-05-19T04:00:41;102954.59;;;17.77;50.31
69245;BME280;56357;52.304;4.870;2023-05-19T04:03:07;102953.94;;;17.75;50.13
69245;BME280;56357;52.304;4.870;2023-05-19T04:05:34;102958.91;;;17.73;50.37
69245;BME280;56357;52.304;4.870;2023-05-19T04:08:00;102954.59;;;17.77;50.24
69245;BME280;56357;52.304;4.870;2023-05-19T04:10:27;102962.59;;;17.74;50.46
69245;BME280;56357;52.304;4.870;2023-05-19T04:12:54;102953.16;;;17.68;50.50
69245;BME280;56357;52.304;4.870;2023-05-19T04:15:20;102963.22;;;17.76;50.61
69245;BME280;56357;52.304;4.870;2023-05-19T04:17:47;102960.00;;;17.79;50.46
69245;BME280;56357;52.304;4.870;2023-05-19T04:20:13;102956.56;;;17.77;50.27
69245;BME280;56357;52.304;4.870;2023-05-19T04:22:40;102961.28;;;17.76;50.34
69245;BME280;56357;52.304;4.870;2023-05-19T04:25:07;102957.63;;;17.76;50.63
69245;BME280;56357;52.304;4.870;2023-05-19T04:27:34;102957.91;;;17.68;50.60
69245;BME280;56357;52.304;4.870;2023-05-19T04:30:04;102963.00;;;17.77;50.58
69245;BME280;56357;52.304;4.870;2023-05-19T04:32:30;102964.03;;;17.83;50.49
69245;BME280;56357;52.304;4.870;2023-05-19T04:34:57;102955.63;;;17.83;50.64
69245;BME280;56357;52.304;4.870;2023-05-19T04:37:25;102953.69;;;17.83;50.79
69245;BME280;56357;52.304;4.870;2023-05-19T04:39:51;102956.66;;;17.88;50.47
69245;BME280;56357;52.304;4.870;2023-05-19T04:42:18;102961.66;;;17.86;50.54
69245;BME280;56357;52.304;4.870;2023-05-19T04:44:45;102955.09;;;17.92;50.62
69245;BME280;56357;52.304;4.870;2023-05-19T04:47:14;102959.72;;;18.29;50.28
69245;BME280;56357;52.304;4.870;2023-05-19T04:49:40;102956.88;;;18.54;49.47
69245;BME280;56357;52.304;4.870;2023-05-19T04:52:07;102960.50;;;18.37;49.54
69245;BME280;56357;52.304;4.870;2023-05-19T04:54:36;102967.16;;;18.17;49.49
69245;BME280;56357;52.304;4.870;2023-05-19T04:57:03;102964.44;;;18.11;49.73
69245;BME280;56357;52.304;4.870;2023-05-19T04:59:31;102963.41;;;18.05;49.68
69245;BME280;56357;52.304;4.870;2023-05-19T05:01:57;102973.81;;;17.98;50.01
69245;BME280;56357;52.304;4.870;2023-05-19T05:04:24;102966.91;;;18.01;50.26
69245;BME280;56357;52.304;4.870;2023-05-19T05:06:50;102975.25;;;18.07;50.12
69245;BME280;56357;52.304;4.870;2023-05-19T05:09:17;102971.75;;;18.12;50.08
69245;BME280;56357;52.304;4.870;2023-05-19T05:11:44;102971.13;;;18.10;50.17
69245;BME280;56357;52.304;4.870;2023-05-19T05:14:11;102974.56;;;18.12;50.30
69245;BME280;56357;52.304;4.870;2023-05-19T05:16:37;102976.91;;;18.15;50.40
69245;BME280;56357;52.304;4.870;2023-05-19T05:19:04;102982.72;;;18.13;50.66
69245;BME280;56357;52.304;4.870;2023-05-19T05:21:31;102988.28;;;18.20;51.00
69245;BME280;56357;52.304;4.870;2023-05-19T05:23:57;102978.03;;;18.32;50.67
69245;BME280;56357;52.304;4.870;2023-05-19T05:26:27;102981.13;;;18.49;49.94
69245;BME280;56357;52.304;4.870;2023-05-19T05:28:55;102985.63;;;18.25;51.38
69245;BME280;56357;52.304;4.870;2023-05-19T05:31:21;102986.13;;;18.22;51.20
69245;BME280;56357;52.304;4.870;2023-05-19T05:33:48;102985.03;;;18.23;51.80
69245;BME280;56357;52.304;4.870;2023-05-19T05:36:14;102988.34;;;18.38;51.35
69245;BME280;56357;52.304;4.870;2023-05-19T05:38:40;102977.31;;;18.43;51.19
69245;BME280;56357;52.304;4.870;2023-05-19T05:41:07;102981.84;;;18.62;51.34
69245;BME280;56357;52.304;4.870;2023-05-19T05:43:33;102976.88;;;18.40;51.95
69245;BME280;56357;52.304;4.870;2023-05-19T05:46:00;102985.25;;;18.46;52.09
69245;BME280;56357;52.304;4.870;2023-05-19T05:48:26;102982.22;;;18.66;52.51
69245;BME280;56357;52.304;4.870;2023-05-19T05:50:55;102981.13;;;18.85;52.14
69245;BME280;56357;52.304;4.870;2023-05-19T05:53:24;102985.13;;;18.77;52.99
69245;BME280;56357;52.304;4.870;2023-05-19T05:55:51;102988.63;;;18.91;52.73
69245;BME280;56357;52.304;4.870;2023-05-19T05:58:18;102982.13;;;19.08;52.20
69245;BME280;56357;52.304;4.870;2023-05-19T06:00:45;102979.25;;;19.15;52.58
69245;BME280;56357;52.304;4.870;2023-05-19T06:03:13;102973.09;;;19.06;52.39
69245;BME280;56357;52.304;4.870;2023-05-19T06:05:40;102981.75;;;19.05;52.60
69245;BME280;56357;52.304;4.870;2023-05-19T06:08:07;102982.34;;;19.25;52.77
69245;BME280;56357;52.304;4.870;2023-05-19T06:10:33;102982.34;;;19.25;52.51
69245;BME280;56357;52.304;4.870;2023-05-19T06:13:02;102981.88;;;19.28;52.39
69245;BME280;56357;52.304;4.870;2023-05-19T06:15:29;102980.22;;;19.39;52.63
69245;BME280;56357;52.304;4.870;2023-05-19T06:17:55;102980.38;;;19.44;52.45
69245;BME280;56357;52.304;4.870;2023-05-19T06:20:22;102971.44;;;19.35;52.54
69245;BME280;56357;52.304;4.870;2023-05-19T06:22:48;102969.94;;;19.33;52.79
69245;BME280;56357;52.304;4.870;2023-05-19T06:25:15;102989.66;;;19.44;52.69
69245;BME280;56357;52.304;4.870;2023-05-19T06:27:41;102976.09;;;19.41;52.41
69245;BME280;56357;52.304;4.870;2023-05-19T06:30:08;102983.38;;;19.31;52.23
69245;BME280;56357;52.304;4.870;2023-05-19T06:32:35;102974.84;;;19.37;52.46
69245;BME280;56357;52.304;4.870;2023-05-19T06:35:01;102979.00;;;19.35;52.03
69245;BME280;56357;52.304;4.870;2023-05-19T06:37:28;102979.03;;;19.46;52.99
69245;BME280;56357;52.304;4.870;2023-05-19T06:39:54;102975.59;;;19.44;52.15
69245;BME280;56357;52.304;4.870;2023-05-19T06:42:21;102968.06;;;19.56;51.53
69245;BME280;56357;52.304;4.870;2023-05-19T06:44:52;102970.56;;;19.64;51.70
69245;BME280;56357;52.304;4.870;2023-05-19T06:47:18;102975.84;;;19.72;51.67
69245;BME280;56357;52.304;4.870;2023-05-19T06:49:45;102972.78;;;19.74;51.44
69245;BME280;56357;52.304;4.870;2023-05-19T06:52:14;102970.84;;;19.74;51.74
69245;BME280;56357;52.304;4.870;2023-05-19T06:54:41;102971.22;;;19.89;52.16
69245;BME280;56357;52.304;4.870;2023-05-19T06:57:07;102973.41;;;19.76;51.29
69245;BME280;56357;52.304;4.870;2023-05-19T06:59:34;102968.75;;;19.81;51.10
69245;BME280;56357;52.304;4.870;2023-05-19T07:02:01;102980.09;;;19.75;51.57
69245;BME280;56357;52.304;4.870;2023-05-19T07:04:28;102969.88;;;19.80;52.36
69245;BME280;56357;52.304;4.870;2023-05-19T07:06:55;102980.03;;;19.93;51.54
69245;BME280;56357;52.304;4.870;2023-05-19T07:09:21;102979.66;;;19.89;51.40
69245;BME280;56357;52.304;4.870;2023-05-19T07:11:48;102970.94;;;19.79;50.96
69245;BME280;56357;52.304;4.870;2023-05-19T07:14:14;102974.03;;;19.89;50.90
69245;BME280;56357;52.304;4.870;2023-05-19T07:16:41;102984.19;;;19.90;51.88
69245;BME280;56357;52.304;4.870;2023-05-19T07:19:07;102977.69;;;19.78;51.07
69245;BME280;56357;52.304;4.870;2023-05-19T07:21:34;102980.69;;;19.65;51.47
69245;BME280;56357;52.304;4.870;2023-05-19T07:24:00;102980.47;;;19.67;51.33
69245;BME280;56357;52.304;4.870;2023-05-19T07:26:27;102982.28;;;19.61;51.58
69245;BME280;56357;52.304;4.870;2023-05-19T07:28:54;102983.56;;;19.88;52.25
69245;BME280;56357;52.304;4.870;2023-05-19T07:31:21;102978.53;;;19.79;50.65
69245;BME280;56357;52.304;4.870;2023-05-19T07:33:48;102983.38;;;19.60;50.34
69245;BME280;56357;52.304;4.870;2023-05-19T07:36:14;102976.66;;;19.61;50.05
69245;BME280;56357;52.304;4.870;2023-05-19T07:38:41;102986.19;;;19.60;49.89
69245;BME280;56357;52.304;4.870;2023-05-19T07:41:08;102981.31;;;19.67;49.69
69245;BME280;56357;52.304;4.870;2023-05-19T07:43:35;102979.03;;;19.76;49.30
69245;BME280;56357;52.304;4.870;2023-05-19T07:46:01;102979.00;;;19.64;49.87
69245;BME280;56357;52.304;4.870;2023-05-19T07:48:27;102971.19;;;19.66;49.75
69245;BME280;56357;52.304;4.870;2023-05-19T07:50:54;102972.53;;;19.75;50.06
69245;BME280;56357;52.304;4.870;2023-05-19T07:53:20;102971.47;;;19.88;49.98
69245;BME280;56357;52.304;4.870;2023-05-19T07:55:47;102970.25;;;19.84;49.28
69245;BME280;56357;52.304;4.870;2023-05-19T07:58:14;102965.84;;;19.88;50.03
69245;BME280;56357;52.304;4.870;2023-05-19T08:00:40;102972.81;;;19.85;49.25
69245;BME280;56357;52.304;4.870;2023-05-19T08:03:11;102975.53;;;19.92;49.70
69245;BME280;56357;52.304;4.870;2023-05-19T08:05:37;102969.31;;;20.01;48.81
69245;BME280;56357;52.304;4.870;2023-05-19T08:08:04;102960.88;;;20.01;49.50
69245;BME280;56357;52.304;4.870;2023-05-19T08:10:31;102957.66;;;19.98;48.63
69245;BME280;56357;52.304;4.870;2023-05-19T08:12:57;102961.81;;;19.95;48.96
69245;BME280;56357;52.304;4.870;2023-05-19T08:15:24;102959.00;;;19.95;49.62
69245;BME280;56357;52.304;4.870;2023-05-19T08:17:50;102957.44;;;19.99;48.86
69245;BME280;56357;52.304;4.870;2023-05-19T08:20:17;102955.69;;;19.98;48.62
69245;BME280;56357;52.304;4.870;2023-05-19T08:22:44;102954.97;;;20.03;48.85
69245;BME280;56357;52.304;4.870;2023-05-19T08:25:10;102945.84;;;20.19;49.24
69245;BME280;56357;52.304;4.870;2023-05-19T08:27:37;102953.63;;;20.17;48.51
69245;BME280;56357;52.304;4.870;2023-05-19T08:30:05;102955.00;;;20.15;48.57
69245;BME280;56357;52.304;4.870;2023-05-19T08:32:32;102947.03;;;20.12;48.30
69245;BME280;56357;52.304;4.870;2023-05-19T08:34:58;102945.78;;;20.07;48.25
69245;BME280;56357;52.304;4.870;2023-05-19T08:37:25;102946.44;;;20.21;48.32
69245;BME280;56357;52.304;4.870;2023-05-19T08:39:51;102932.16;;;20.23;47.74
69245;BME280;56357;52.304;4.870;2023-05-19T08:42:18;102926.84;;;20.15;47.83
69245;BME280;56357;52.304;4.870;2023-05-19T08:44:45;102934.47;;;20.26;48.73
69245;BME280;56357;52.304;4.870;2023-05-19T08:47:12;102932.16;;;20.34;48.07
69245;BME280;56357;52.304;4.870;2023-05-19T08:49:44;102932.88;;;20.41;48.27
69245;BME280;56357;52.304;4.870;2023-05-19T08:55:05;102927.59;;;20.45;47.03
69245;BME280;56357;52.304;4.870;2023-05-19T08:57:35;102926.50;;;20.46;48.33
69245;BME280;56357;52.304;4.870;2023-05-19T09:00:03;102923.19;;;20.49;47.71
69245;BME280;56357;52.304;4.870;2023-05-19T09:02:35;102918.78;;;20.41;47.22
69245;BME280;56357;52.304;4.870;2023-05-19T09:05:04;102923.69;;;20.46;47.31
69245;BME280;56357;52.304;4.870;2023-05-19T09:07:31;102925.91;;;20.44;47.07
69245;BME280;56357;52.304;4.870;2023-05-19T09:09:59;102923.81;;;20.51;46.65
69245;BME280;56357;52.304;4.870;2023-05-19T09:12:26;102931.88;;;20.47;46.84
69245;BME280;56357;52.304;4.870;2023-05-19T09:14:53;102936.66;;;20.47;46.89
69245;BME280;56357;52.304;4.870;2023-05-19T09:17:19;102918.06;;;20.46;46.80
69245;BME280;56357;52.304;4.870;2023-05-19T09:19:46;102919.66;;;20.53;47.71
69245;BME280;56357;52.304;4.870;2023-05-19T09:22:15;102920.63;;;20.59;46.83
69245;BME280;56357;52.304;4.870;2023-05-19T09:24:43;102907.00;;;20.67;46.77
69245;BME280;56357;52.304;4.870;2023-05-19T09:27:13;102924.88;;;20.61;46.83
69245;BME280;56357;52.304;4.870;2023-05-19T09:29:40;102919.00;;;20.74;47.64
69245;BME280;56357;52.304;4.870;2023-05-19T09:32:07;102917.16;;;20.68;46.84
69245;BME280;56357;52.304;4.870;2023-05-19T09:34:33;102916.16;;;20.74;46.75
69245;BME280;56357;52.304;4.870;2023-05-19T09:37:00;102914.19;;;20.75;46.79
69245;BME280;56357;52.304;4.870;2023-05-19T09:39:26;102908.81;;;20.73;46.85
69245;BME280;56357;52.304;4.870;2023-05-19T09:41:54;102913.19;;;20.81;47.73
69245;BME280;56357;52.304;4.870;2023-05-19T09:44:23;102918.69;;;20.87;47.58
69245;BME280;56357;52.304;4.870;2023-05-19T09:46:53;102923.56;;;20.92;46.42
69245;BME280;56357;52.304;4.870;2023-05-19T09:49:21;102922.59;;;20.86;47.10
69245;BME280;56357;52.304;4.870;2023-05-19T09:51:49;102917.84;;;20.87;46.37
69245;BME280;56357;52.304;4.870;2023-05-19T09:54:19;102911.47;;;21.03;45.31
69245;BME280;56357;52.304;4.870;2023-05-19T09:56:50;102914.72;;;21.00;45.00
69245;BME280;56357;52.304;4.870;2023-05-19T09:59:18;102909.25;;;20.93;45.75
69245;BME280;56357;52.304;4.870;2023-05-19T10:01:51;102916.94;;;20.98;46.15
69245;BME280;56357;52.304;4.870;2023-05-19T10:04:18;102913.28;;;20.98;46.15
69245;BME280;56357;52.304;4.870;2023-05-19T10:06:47;102909.09;;;21.00;46.60
69245;BME280;56357;52.304;4.870;2023-05-19T10:09:20;102906.91;;;21.02;46.94
69245;BME280;56357;52.304;4.870;2023-05-19T10:11:53;102910.00;;;20.89;46.48
69245;BME280;56357;52.304;4.870;2023-05-19T10:14:22;102910.09;;;20.94;46.79
69245;BME280;56357;52.304;4.870;2023-05-19T10:16:56;102905.81;;;21.03;47.48
69245;BME280;56357;52.304;4.870;2023-05-19T10:19:24;102906.66;;;21.04;47.54
69245;BME280;56357;52.304;4.870;2023-05-19T10:21:51;102901.75;;;21.11;46.87
69245;BME280;56357;52.304;4.870;2023-05-19T10:24:18;102903.69;;;21.10;47.57
69245;BME280;56357;52.304;4.870;2023-05-19T10:26:59;102903.44;;;21.12;47.25
69245;BME280;56357;52.304;4.870;2023-05-19T10:29:30;102902.28;;;21.24;47.41
69245;BME280;56357;52.304;4.870;2023-05-19T10:32:02;102898.28;;;21.20;46.91
69245;BME280;56357;52.304;4.870;2023-05-19T10:37:23;102898.34;;;21.25;47.27
69245;BME280;56357;52.304;4.870;2023-05-19T10:39:56;102902.78;;;21.21;44.60
69245;BME280;56357;52.304;4.870;2023-05-19T10:42:37;102889.41;;;21.28;46.70
69245;BME280;56357;52.304;4.870;2023-05-19T10:45:18;102890.75;;;21.26;44.33
69245;BME280;56357;52.304;4.870;2023-05-19T10:47:46;102887.09;;;21.25;47.03
69245;BME280;56357;52.304;4.870;2023-05-19T10:50:12;102887.09;;;21.25;45.08
69245;BME280;56357;52.304;4.870;2023-05-19T10:52:39;102884.97;;;21.32;45.44
69245;BME280;56357;52.304;4.870;2023-05-19T10:55:07;102891.31;;;21.39;46.38
69245;BME280;56357;52.304;4.870;2023-05-19T10:58:01;102890.44;;;21.39;46.80
69245;BME280;56357;52.304;4.870;2023-05-19T11:00:29;102883.09;;;21.38;44.51
69245;BME280;56357;52.304;4.870;2023-05-19T11:03:16;102880.38;;;21.43;44.51
69245;BME280;56357;52.304;4.870;2023-05-19T11:05:43;102878.28;;;21.38;46.31
69245;BME280;56357;52.304;4.870;2023-05-19T11:08:11;102882.25;;;21.37;45.72
69245;BME280;56357;52.304;4.870;2023-05-19T11:10:37;102876.78;;;21.47;45.04
69245;BME280;56357;52.304;4.870;2023-05-19T11:13:04;102869.25;;;21.36;45.29
69245;BME280;56357;52.304;4.870;2023-05-19T11:15:34;102871.31;;;21.41;46.17
69245;BME280;56357;52.304;4.870;2023-05-19T11:18:02;102872.97;;;21.53;46.51
69245;BME280;56357;52.304;4.870;2023-05-19T11:20:29;102874.56;;;21.49;48.14
69245;BME280;56357;52.304;4.870;2023-05-19T11:23:14;102870.13;;;21.53;47.20
69245;BME280;56357;52.304;4.870;2023-05-19T11:25:43;102871.84;;;21.54;45.83
69245;BME280;56357;52.304;4.870;2023-05-19T11:28:10;102871.91;;;21.59;47.00
69245;BME280;56357;52.304;4.870;2023-05-19T11:30:40;102877.41;;;21.49;46.31
69245;BME280;56357;52.304;4.870;2023-05-19T11:33:09;102882.59;;;21.57;47.53
69245;BME280;56357;52.304;4.870;2023-05-19T11:35:36;102882.09;;;21.44;45.76
69245;BME280;56357;52.304;4.870;2023-05-19T11:38:02;102885.25;;;21.47;45.63
69245;BME280;56357;52.304;4.870;2023-05-19T11:40:29;102883.03;;;21.49;46.56
69245;BME280;56357;52.304;4.870;2023-05-19T11:42:56;102871.84;;;21.54;45.12
69245;BME280;56357;52.304;4.870;2023-05-19T11:45:27;102871.84;;;21.54;45.30
69245;BME280;56357;52.304;4.870;2023-05-19T11:47:54;102864.50;;;21.53;45.26
69245;BME280;56357;52.304;4.870;2023-05-19T11:50:21;102866.56;;;21.74;45.78
69245;BME280;56357;52.304;4.870;2023-05-19T11:52:49;102868.06;;;21.65;47.03
69245;BME280;56357;52.304;4.870;2023-05-19T11:55:17;102866.56;;;21.74;46.54
69245;BME280;56357;52.304;4.870;2023-05-19T11:58:02;102867.72;;;21.78;47.36
69245;BME280;56357;52.304;4.870;2023-05-19T12:00:33;102856.63;;;21.89;47.39
69245;BME280;56357;52.304;4.870;2023-05-19T12:03:01;102858.09;;;21.91;45.75
69245;BME280;56357;52.304;4.870;2023-05-19T12:05:28;102860.22;;;22.01;46.54
69245;BME280;56357;52.304;4.870;2023-05-19T12:07:56;102865.59;;;22.02;46.48
69245;BME280;56357;52.304;4.870;2023-05-19T12:10:26;102855.53;;;21.90;45.90
69245;BME280;56357;52.304;4.870;2023-05-19T12:12:53;102849.97;;;21.95;46.50
69245;BME280;56357;52.304;4.870;2023-05-19T12:15:21;102858.69;;;21.93;44.21
69245;BME280;56357;52.304;4.870;2023-05-19T12:17:58;102849.09;;;21.94;46.38
69245;BME280;56357;52.304;4.870;2023-05-19T12:20:26;102847.38;;;22.10;46.41
69245;BME280;56357;52.304;4.870;2023-05-19T12:22:56;102853.13;;;21.98;48.20
69245;BME280;56357;52.304;4.870;2023-05-19T12:25:23;102846.44;;;22.04;50.59
69245;BME280;56357;52.304;4.870;2023-05-19T12:27:50;102842.16;;;22.02;50.22
69245;BME280;56357;52.304;4.870;2023-05-19T12:30:25;102838.75;;;22.00;47.57
69245;BME280;56357;52.304;4.870;2023-05-19T12:32:53;102840.53;;;22.06;44.53
69245;BME280;56357;52.304;4.870;2023-05-19T12:35:25;102842.09;;;21.97;46.26
69245;BME280;56357;52.304;4.870;2023-05-19T12:37:51;102826.63;;;21.99;46.93
69245;BME280;56357;52.304;4.870;2023-05-19T12:40:18;102823.47;;;21.96;47.44
69245;BME280;56357;52.304;4.870;2023-05-19T12:42:45;102830.44;;;22.10;45.45
69245;BME280;56357;52.304;4.870;2023-05-19T12:45:12;102817.97;;;22.06;47.49
69245;BME280;56357;52.304;4.870;2023-05-19T12:47:39;102822.78;;;22.05;47.30
69245;BME280;56357;52.304;4.870;2023-05-19T12:50:08;102810.34;;;22.06;47.04
69245;BME280;56357;52.304;4.870;2023-05-19T12:52:42;102821.97;;;22.10;45.96
69245;BME280;56357;52.304;4.870;2023-05-19T12:55:09;102822.06;;;22.15;46.65
69245;BME280;56357;52.304;4.870;2023-05-19T12:57:40;102829.41;;;22.16;43.63
69245;BME280;56357;52.304;4.870;2023-05-19T13:02:59;102823.16;;;22.14;45.67
69245;BME280;56357;52.304;4.870;2023-05-19T13:05:33;102816.34;;;22.10;46.34
69245;BME280;56357;52.304;4.870;2023-05-19T13:08:04;102809.72;;;22.21;44.99